Airfield :
LOGIN :

Register | Disclaimer

   EN    FR    IT 

 










Legend :    VFR   Marginal VFR   IFR   Intensive IFR   Very Intensive IFR
Visi :
Ceiling :
>= 8 km
>= 3000ft
5 to 8 km
1000 to 3000 ft
1500m to 5 km
500 to 1000 ft
800 to 1500m
200 to 500 ft
< 800m
< 200 ft
Symbols :   Thunderstorms  Fog  Heavy snow  Heavy precipitations  Wind > 20 kt
SIGMETs :     Misc.  Thunderstorms  Icing  Turbulence  Mountain Waves  Volcanic Ashes






- Airport Elevation : 124 ft
- IATA code : RNS


LFRN - Rennes

CURRENT METAR :
  • 021000Z AUTO 21005KT 140V280 CAVOK 21/09 Q1020 NOSIG

EXPIRED METARs :
  • 020930Z AUTO VRB07KT CAVOK 20/09 Q1021 NOSIG
  • 020900Z AUTO 23004KT 180V340 CAVOK 19/09 Q1021 NOSIG
  • 020830Z AUTO VRB03KT CAVOK 18/09 Q1021 NOSIG
  • 012130Z AUTO 23005KT CAVOK 15/09 Q1022 NOSIG
  • 020800Z AUTO VRB03KT CAVOK 17/11 Q1021 NOSIG
  • 020730Z AUTO VRB02KT CAVOK 16/12 Q1021 NOSIG

TAF TAF LFRN
Valid from the 02 at 06:00 until the 03 at 06:00 UTC


020500Z 0206/0306 VRB02KT CAVOK
BECMG 0218/0220 34010KT
BECMG 0222/0224 VRB02KT
PROB30
TEMPO 0300/0303 BKN014
TEMPO 0303/0306 3000 BR
PROB40
TEMPO 0303/0306 0500 FG
ATIS : +33 2 99 67 72 50



MET'MAP, your aeronautical weather chart ! - Copyright ORBIFLY December 2007 - Disclaimer

ORBIFLY MET'MAP TEAM :

Programming & Development : Alexandra Zaïnal
Original concept : Baudouin d'Aumeries
Technical & hardware support : Manuel Goepfert
Assistance : Marc-Olivier Méhu




SOURCES & CREDITS :

   NOAA